sensor_id;sensor_type;location;lat;lon;timestamp;temperature;humidity
36416;DHT22;22447;44.530;18.620;2023-03-04T00:01:35;5.50;99.90
36416;DHT22;22447;44.530;18.620;2023-03-04T00:04:01;5.50;99.90
36416;DHT22;22447;44.530;18.620;2023-03-04T00:06:27;5.50;99.90
36416;DHT22;22447;44.530;18.620;2023-03-04T00:08:53;5.40;99.90
36416;DHT22;22447;44.530;18.620;2023-03-04T00:11:19;5.40;99.90
36416;DHT22;22447;44.530;18.620;2023-03-04T00:13:45;5.40;99.90
36416;DHT22;22447;44.530;18.620;2023-03-04T00:16:11;5.40;99.90
36416;DHT22;22447;44.530;18.620;2023-03-04T00:18:37;5.40;99.90
36416;DHT22;22447;44.530;18.620;2023-03-04T00:21:03;5.40;99.90
36416;DHT22;22447;44.530;18.620;2023-03-04T00:23:29;5.40;99.90
36416;DHT22;22447;44.530;18.620;2023-03-04T00:25:54;5.50;99.90
36416;DHT22;22447;44.530;18.620;2023-03-04T00:28:20;5.40;99.90
36416;DHT22;22447;44.530;18.620;2023-03-04T00:30:46;5.30;99.90
36416;DHT22;22447;44.530;18.620;2023-03-04T00:33:12;5.30;99.90
36416;DHT22;22447;44.530;18.620;2023-03-04T00:35:38;5.40;99.90
36416;DHT22;22447;44.530;18.620;2023-03-04T00:38:04;5.40;99.90
36416;DHT22;22447;44.530;18.620;2023-03-04T00:40:30;5.40;99.90
36416;DHT22;22447;44.530;18.620;2023-03-04T00:42:56;5.40;99.90
36416;DHT22;22447;44.530;18.620;2023-03-04T00:45:22;5.30;99.90
36416;DHT22;22447;44.530;18.620;2023-03-04T00:47:48;5.40;99.90
36416;DHT22;22447;44.530;18.620;2023-03-04T00:50:14;5.30;99.90
36416;DHT22;22447;44.530;18.620;2023-03-04T00:52:41;5.40;99.90
36416;DHT22;22447;44.530;18.620;2023-03-04T00:55:07;5.40;99.90
36416;DHT22;22447;44.530;18.620;2023-03-04T00:57:34;5.40;99.90
36416;DHT22;22447;44.530;18.620;2023-03-04T01:00:00;5.30;99.90
36416;DHT22;22447;44.530;18.620;2023-03-04T01:02:26;5.30;99.90
36416;DHT22;22447;44.530;18.620;2023-03-04T01:04:52;5.30;99.90
36416;DHT22;22447;44.530;18.620;2023-03-04T01:07:18;5.20;99.90
36416;DHT22;22447;44.530;18.620;2023-03-04T01:09:44;5.30;99.90
36416;DHT22;22447;44.530;18.620;2023-03-04T01:12:09;5.30;99.90
36416;DHT22;22447;44.530;18.620;2023-03-04T01:14:36;5.30;99.90
36416;DHT22;22447;44.530;18.620;2023-03-04T01:17:02;5.40;99.90
36416;DHT22;22447;44.530;18.620;2023-03-04T01:19:28;5.40;99.90
36416;DHT22;22447;44.530;18.620;2023-03-04T01:21:54;5.40;99.90
36416;DHT22;22447;44.530;18.620;2023-03-04T01:24:21;5.30;99.90
36416;DHT22;22447;44.530;18.620;2023-03-04T01:26:47;5.30;99.90
36416;DHT22;22447;44.530;18.620;2023-03-04T01:29:13;5.40;99.90
36416;DHT22;22447;44.530;18.620;2023-03-04T01:31:39;5.40;99.90
36416;DHT22;22447;44.530;18.620;2023-03-04T01:34:05;5.40;99.90
36416;DHT22;22447;44.530;18.620;2023-03-04T01:36:31;5.40;99.90
36416;DHT22;22447;44.530;18.620;2023-03-04T01:38:57;5.40;99.90
36416;DHT22;22447;44.530;18.620;2023-03-04T01:41:25;5.40;99.90
36416;DHT22;22447;44.530;18.620;2023-03-04T01:43:52;5.40;99.90
36416;DHT22;22447;44.530;18.620;2023-03-04T01:46:19;5.40;99.90
36416;DHT22;22447;44.530;18.620;2023-03-04T01:48:46;5.30;99.90
36416;DHT22;22447;44.530;18.620;2023-03-04T01:51:17;5.30;99.90
36416;DHT22;22447;44.530;18.620;2023-03-04T01:53:45;5.40;99.90
36416;DHT22;22447;44.530;18.620;2023-03-04T01:56:15;5.40;99.90
36416;DHT22;22447;44.530;18.620;2023-03-04T01:58:43;5.30;99.90
36416;DHT22;22447;44.530;18.620;2023-03-04T02:01:12;5.30;99.90
36416;DHT22;22447;44.530;18.620;2023-03-04T02:03:38;5.30;99.90
36416;DHT22;22447;44.530;18.620;2023-03-04T02:06:05;5.30;99.90
36416;DHT22;22447;44.530;18.620;2023-03-04T02:08:31;5.30;99.90
36416;DHT22;22447;44.530;18.620;2023-03-04T02:10:57;5.30;99.90
36416;DHT22;22447;44.530;18.620;2023-03-04T02:13:23;5.30;99.90
36416;DHT22;22447;44.530;18.620;2023-03-04T02:15:50;5.20;99.90
36416;DHT22;22447;44.530;18.620;2023-03-04T02:18:21;5.20;99.90
36416;DHT22;22447;44.530;18.620;2023-03-04T02:26:17;5.20;99.90
36416;DHT22;22447;44.530;18.620;2023-03-04T02:28:47;5.20;99.90
36416;DHT22;22447;44.530;18.620;2023-03-04T02:31:37;5.20;99.90
36416;DHT22;22447;44.530;18.620;2023-03-04T02:34:06;5.20;99.90
36416;DHT22;22447;44.530;18.620;2023-03-04T02:36:35;5.10;99.90
36416;DHT22;22447;44.530;18.620;2023-03-04T02:39:09;5.20;99.90
36416;DHT22;22447;44.530;18.620;2023-03-04T02:41:35;5.20;99.90
36416;DHT22;22447;44.530;18.620;2023-03-04T02:44:02;5.10;99.90
36416;DHT22;22447;44.530;18.620;2023-03-04T02:46:28;5.10;99.90
36416;DHT22;22447;44.530;18.620;2023-03-04T02:48:54;5.20;99.90
36416;DHT22;22447;44.530;18.620;2023-03-04T02:51:20;5.30;99.90
36416;DHT22;22447;44.530;18.620;2023-03-04T02:53:47;5.20;99.90
36416;DHT22;22447;44.530;18.620;2023-03-04T02:56:13;5.30;99.90
36416;DHT22;22447;44.530;18.620;2023-03-04T02:58:39;5.30;99.90
36416;DHT22;22447;44.530;18.620;2023-03-04T03:01:07;5.30;99.90
36416;DHT22;22447;44.530;18.620;2023-03-04T03:03:34;5.30;99.90
36416;DHT22;22447;44.530;18.620;2023-03-04T03:06:00;5.30;99.90
36416;DHT22;22447;44.530;18.620;2023-03-04T03:08:26;5.20;99.90
36416;DHT22;22447;44.530;18.620;2023-03-04T03:10:53;5.30;99.90
36416;DHT22;22447;44.530;18.620;2023-03-04T03:13:19;5.20;99.90
36416;DHT22;22447;44.530;18.620;2023-03-04T03:15:46;5.20;99.90
36416;DHT22;22447;44.530;18.620;2023-03-04T03:18:14;5.00;99.90
36416;DHT22;22447;44.530;18.620;2023-03-04T03:20:41;5.00;99.90
36416;DHT22;22447;44.530;18.620;2023-03-04T03:23:08;5.00;99.90
36416;DHT22;22447;44.530;18.620;2023-03-04T03:25:34;5.10;99.90
36416;DHT22;22447;44.530;18.620;2023-03-04T03:28:00;5.10;99.90
36416;DHT22;22447;44.530;18.620;2023-03-04T03:30:26;4.90;99.90
36416;DHT22;22447;44.530;18.620;2023-03-04T03:32:52;5.00;99.90
36416;DHT22;22447;44.530;18.620;2023-03-04T03:35:18;5.00;99.90
36416;DHT22;22447;44.530;18.620;2023-03-04T03:37:44;5.00;99.90
36416;DHT22;22447;44.530;18.620;2023-03-04T03:40:11;5.10;99.90
36416;DHT22;22447;44.530;18.620;2023-03-04T03:42:37;5.10;99.90
36416;DHT22;22447;44.530;18.620;2023-03-04T03:45:03;5.10;99.90
36416;DHT22;22447;44.530;18.620;2023-03-04T03:47:29;5.20;99.90
36416;DHT22;22447;44.530;18.620;2023-03-04T03:49:55;5.10;99.90
36416;DHT22;22447;44.530;18.620;2023-03-04T03:52:21;5.10;99.90
36416;DHT22;22447;44.530;18.620;2023-03-04T03:54:46;5.20;99.90
36416;DHT22;22447;44.530;18.620;2023-03-04T03:57:12;5.10;99.90
36416;DHT22;22447;44.530;18.620;2023-03-04T03:59:38;5.10;99.90
36416;DHT22;22447;44.530;18.620;2023-03-04T04:02:04;5.20;99.90
36416;DHT22;22447;44.530;18.620;2023-03-04T04:04:30;5.20;99.90
36416;DHT22;22447;44.530;18.620;2023-03-04T04:06:56;5.10;99.90
36416;DHT22;22447;44.530;18.620;2023-03-04T04:09:22;5.20;99.90
36416;DHT22;22447;44.530;18.620;2023-03-04T04:11:48;5.30;99.90
36416;DHT22;22447;44.530;18.620;2023-03-04T04:14:14;5.20;99.90
36416;DHT22;22447;44.530;18.620;2023-03-04T04:16:40;5.20;99.90
36416;DHT22;22447;44.530;18.620;2023-03-04T04:19:06;5.10;99.90
36416;DHT22;22447;44.530;18.620;2023-03-04T04:21:32;5.20;99.90
36416;DHT22;22447;44.530;18.620;2023-03-04T04:23:58;5.30;99.90
36416;DHT22;22447;44.530;18.620;2023-03-04T04:26:24;5.20;99.90
36416;DHT22;22447;44.530;18.620;2023-03-04T04:28:50;5.30;99.90
36416;DHT22;22447;44.530;18.620;2023-03-04T04:31:16;5.30;99.90
36416;DHT22;22447;44.530;18.620;2023-03-04T04:33:42;5.20;99.90
36416;DHT22;22447;44.530;18.620;2023-03-04T04:36:13;5.30;99.90
36416;DHT22;22447;44.530;18.620;2023-03-04T04:38:39;5.30;99.90
36416;DHT22;22447;44.530;18.620;2023-03-04T04:41:07;5.20;99.90
36416;DHT22;22447;44.530;18.620;2023-03-04T04:43:38;5.10;99.90
36416;DHT22;22447;44.530;18.620;2023-03-04T04:46:04;5.10;99.90
36416;DHT22;22447;44.530;18.620;2023-03-04T04:48:30;5.20;99.90
36416;DHT22;22447;44.530;18.620;2023-03-04T04:50:56;5.20;99.90
36416;DHT22;22447;44.530;18.620;2023-03-04T04:53:22;5.20;99.90
36416;DHT22;22447;44.530;18.620;2023-03-04T04:55:48;5.20;99.90
36416;DHT22;22447;44.530;18.620;2023-03-04T04:58:14;5.20;99.90
36416;DHT22;22447;44.530;18.620;2023-03-04T05:00:40;5.30;99.90
36416;DHT22;22447;44.530;18.620;2023-03-04T05:03:05;5.20;99.90
36416;DHT22;22447;44.530;18.620;2023-03-04T05:05:31;5.20;99.90
36416;DHT22;22447;44.530;18.620;2023-03-04T05:07:57;5.20;99.90
36416;DHT22;22447;44.530;18.620;2023-03-04T05:10:23;5.20;99.90
36416;DHT22;22447;44.530;18.620;2023-03-04T05:12:49;5.20;99.90
36416;DHT22;22447;44.530;18.620;2023-03-04T05:15:15;5.10;99.90
36416;DHT22;22447;44.530;18.620;2023-03-04T05:17:41;5.10;99.90
36416;DHT22;22447;44.530;18.620;2023-03-04T05:20:08;5.00;99.90
36416;DHT22;22447;44.530;18.620;2023-03-04T05:22:34;5.00;99.90
36416;DHT22;22447;44.530;18.620;2023-03-04T05:25:00;5.10;99.90
36416;DHT22;22447;44.530;18.620;2023-03-04T05:27:26;5.10;99.90
36416;DHT22;22447;44.530;18.620;2023-03-04T05:29:52;5.10;99.90
36416;DHT22;22447;44.530;18.620;2023-03-04T05:32:20;5.10;99.90
36416;DHT22;22447;44.530;18.620;2023-03-04T05:34:46;5.00;99.90
36416;DHT22;22447;44.530;18.620;2023-03-04T05:37:12;5.00;99.90
36416;DHT22;22447;44.530;18.620;2023-03-04T05:39:38;5.10;99.90
36416;DHT22;22447;44.530;18.620;2023-03-04T05:42:04;5.10;99.90
36416;DHT22;22447;44.530;18.620;2023-03-04T05:44:29;5.10;99.90
36416;DHT22;22447;44.530;18.620;2023-03-04T05:46:55;5.00;99.90
36416;DHT22;22447;44.530;18.620;2023-03-04T05:49:21;5.00;99.90
36416;DHT22;22447;44.530;18.620;2023-03-04T05:51:47;5.00;99.90
36416;DHT22;22447;44.530;18.620;2023-03-04T05:54:13;5.00;99.90
36416;DHT22;22447;44.530;18.620;2023-03-04T05:56:39;5.00;99.90
36416;DHT22;22447;44.530;18.620;2023-03-04T05:59:05;5.00;99.90
36416;DHT22;22447;44.530;18.620;2023-03-04T06:01:31;5.00;99.90
36416;DHT22;22447;44.530;18.620;2023-03-04T06:03:57;5.10;99.90
36416;DHT22;22447;44.530;18.620;2023-03-04T06:06:23;5.10;99.90
36416;DHT22;22447;44.530;18.620;2023-03-04T06:08:49;5.10;99.90
36416;DHT22;22447;44.530;18.620;2023-03-04T06:11:15;5.10;99.90
36416;DHT22;22447;44.530;18.620;2023-03-04T06:13:41;5.00;99.90
36416;DHT22;22447;44.530;18.620;2023-03-04T06:16:08;5.00;99.90
36416;DHT22;22447;44.530;18.620;2023-03-04T06:18:34;5.00;99.90
36416;DHT22;22447;44.530;18.620;2023-03-04T06:21:01;5.10;99.90
36416;DHT22;22447;44.530;18.620;2023-03-04T06:23:29;5.20;99.90
36416;DHT22;22447;44.530;18.620;2023-03-04T06:25:56;5.10;99.90
36416;DHT22;22447;44.530;18.620;2023-03-04T06:28:23;5.00;99.90
36416;DHT22;22447;44.530;18.620;2023-03-04T06:30:53;5.00;99.90
36416;DHT22;22447;44.530;18.620;2023-03-04T06:33:19;4.90;99.90
36416;DHT22;22447;44.530;18.620;2023-03-04T06:35:45;5.00;99.90
36416;DHT22;22447;44.530;18.620;2023-03-04T06:38:11;5.10;99.90
36416;DHT22;22447;44.530;18.620;2023-03-04T06:40:37;5.00;99.90
36416;DHT22;22447;44.530;18.620;2023-03-04T06:43:03;5.10;99.90
36416;DHT22;22447;44.530;18.620;2023-03-04T06:45:29;5.10;99.90
36416;DHT22;22447;44.530;18.620;2023-03-04T06:47:55;5.10;99.90
36416;DHT22;22447;44.530;18.620;2023-03-04T06:50:20;5.10;99.90
36416;DHT22;22447;44.530;18.620;2023-03-04T06:52:47;5.20;99.90
36416;DHT22;22447;44.530;18.620;2023-03-04T06:55:14;5.20;99.90
36416;DHT22;22447;44.530;18.620;2023-03-04T06:57:40;5.30;99.90
36416;DHT22;22447;44.530;18.620;2023-03-04T07:00:06;5.20;99.90
36416;DHT22;22447;44.530;18.620;2023-03-04T07:02:32;5.10;99.90
36416;DHT22;22447;44.530;18.620;2023-03-04T07:04:58;5.00;99.90
36416;DHT22;22447;44.530;18.620;2023-03-04T07:07:24;5.20;99.90
36416;DHT22;22447;44.530;18.620;2023-03-04T07:09:51;5.20;99.90
36416;DHT22;22447;44.530;18.620;2023-03-04T07:12:17;5.20;99.90
36416;DHT22;22447;44.530;18.620;2023-03-04T07:14:43;5.20;99.90
36416;DHT22;22447;44.530;18.620;2023-03-04T07:17:08;5.20;99.90
36416;DHT22;22447;44.530;18.620;2023-03-04T07:19:34;5.10;99.90
36416;DHT22;22447;44.530;18.620;2023-03-04T07:22:00;5.20;99.90
36416;DHT22;22447;44.530;18.620;2023-03-04T07:24:26;5.20;99.90
36416;DHT22;22447;44.530;18.620;2023-03-04T07:26:52;5.30;99.90
36416;DHT22;22447;44.530;18.620;2023-03-04T07:29:18;5.40;99.90
36416;DHT22;22447;44.530;18.620;2023-03-04T07:31:44;5.40;99.90
36416;DHT22;22447;44.530;18.620;2023-03-04T07:34:12;5.40;99.90
36416;DHT22;22447;44.530;18.620;2023-03-04T07:36:39;5.20;99.90
36416;DHT22;22447;44.530;18.620;2023-03-04T07:39:05;5.20;99.90
36416;DHT22;22447;44.530;18.620;2023-03-04T07:41:32;5.20;99.90
36416;DHT22;22447;44.530;18.620;2023-03-04T07:44:01;5.20;99.90
36416;DHT22;22447;44.530;18.620;2023-03-04T07:46:27;5.30;99.90
36416;DHT22;22447;44.530;18.620;2023-03-04T07:48:54;5.40;99.90
36416;DHT22;22447;44.530;18.620;2023-03-04T07:51:22;5.40;99.90
36416;DHT22;22447;44.530;18.620;2023-03-04T07:53:51;5.40;99.90
36416;DHT22;22447;44.530;18.620;2023-03-04T07:56:20;5.50;99.90
36416;DHT22;22447;44.530;18.620;2023-03-04T07:58:47;5.50;99.90
36416;DHT22;22447;44.530;18.620;2023-03-04T08:01:19;5.40;99.90
36416;DHT22;22447;44.530;18.620;2023-03-04T08:03:46;5.40;99.90
36416;DHT22;22447;44.530;18.620;2023-03-04T08:06:15;5.50;99.90
36416;DHT22;22447;44.530;18.620;2023-03-04T08:08:41;5.60;99.90
36416;DHT22;22447;44.530;18.620;2023-03-04T08:11:10;5.80;99.90
36416;DHT22;22447;44.530;18.620;2023-03-04T08:13:36;5.70;99.90
36416;DHT22;22447;44.530;18.620;2023-03-04T08:16:03;5.80;99.90
36416;DHT22;22447;44.530;18.620;2023-03-04T08:18:29;5.70;99.90
36416;DHT22;22447;44.530;18.620;2023-03-04T08:20:55;5.70;99.90
36416;DHT22;22447;44.530;18.620;2023-03-04T08:23:21;5.70;99.90
36416;DHT22;22447;44.530;18.620;2023-03-04T08:25:47;5.70;99.90
36416;DHT22;22447;44.530;18.620;2023-03-04T08:28:14;5.80;99.90
36416;DHT22;22447;44.530;18.620;2023-03-04T08:30:40;5.80;99.90
36416;DHT22;22447;44.530;18.620;2023-03-04T08:33:07;5.90;99.90
36416;DHT22;22447;44.530;18.620;2023-03-04T08:35:37;6.00;99.90
36416;DHT22;22447;44.530;18.620;2023-03-04T08:38:04;6.10;99.90
36416;DHT22;22447;44.530;18.620;2023-03-04T08:40:30;6.10;99.90
36416;DHT22;22447;44.530;18.620;2023-03-04T08:42:57;6.20;99.90
36416;DHT22;22447;44.530;18.620;2023-03-04T08:45:23;6.20;99.90
36416;DHT22;22447;44.530;18.620;2023-03-04T08:47:50;6.20;99.90
36416;DHT22;22447;44.530;18.620;2023-03-04T08:50:16;6.30;99.90
36416;DHT22;22447;44.530;18.620;2023-03-04T08:52:42;6.30;99.90
36416;DHT22;22447;44.530;18.620;2023-03-04T08:55:08;6.40;99.90
36416;DHT22;22447;44.530;18.620;2023-03-04T08:57:34;6.30;99.90
36416;DHT22;22447;44.530;18.620;2023-03-04T09:00:00;6.20;99.90
36416;DHT22;22447;44.530;18.620;2023-03-04T09:02:26;6.30;99.90
36416;DHT22;22447;44.530;18.620;2023-03-04T09:04:52;6.40;99.90
36416;DHT22;22447;44.530;18.620;2023-03-04T09:07:18;6.40;99.90
36416;DHT22;22447;44.530;18.620;2023-03-04T09:09:44;6.50;99.90
36416;DHT22;22447;44.530;18.620;2023-03-04T09:12:10;6.60;99.90
36416;DHT22;22447;44.530;18.620;2023-03-04T09:14:36;6.60;99.90
36416;DHT22;22447;44.530;18.620;2023-03-04T09:17:03;6.60;99.90
36416;DHT22;22447;44.530;18.620;2023-03-04T09:19:30;6.60;99.90
36416;DHT22;22447;44.530;18.620;2023-03-04T09:21:56;6.70;99.90
36416;DHT22;22447;44.530;18.620;2023-03-04T09:24:25;6.80;99.90
36416;DHT22;22447;44.530;18.620;2023-03-04T09:26:52;6.80;99.90
36416;DHT22;22447;44.530;18.620;2023-03-04T09:29:18;6.90;99.90
36416;DHT22;22447;44.530;18.620;2023-03-04T09:31:44;7.00;99.90
36416;DHT22;22447;44.530;18.620;2023-03-04T09:34:10;7.00;99.90
36416;DHT22;22447;44.530;18.620;2023-03-04T09:36:36;7.00;99.90
36416;DHT22;22447;44.530;18.620;2023-03-04T09:39:03;7.10;99.90
36416;DHT22;22447;44.530;18.620;2023-03-04T09:41:39;7.20;99.90
36416;DHT22;22447;44.530;18.620;2023-03-04T09:46:40;7.20;99.90
36416;DHT22;22447;44.530;18.620;2023-03-04T09:49:10;7.20;99.90
36416;DHT22;22447;44.530;18.620;2023-03-04T10:03:09;7.80;99.90
36416;DHT22;22447;44.530;18.620;2023-03-04T10:11:24;7.80;99.90
36416;DHT22;22447;44.530;18.620;2023-03-04T10:19:55;7.80;99.90
36416;DHT22;22447;44.530;18.620;2023-03-04T10:22:35;7.60;99.90
36416;DHT22;22447;44.530;18.620;2023-03-04T10:25:22;7.60;99.90
36416;DHT22;22447;44.530;18.620;2023-03-04T10:28:12;7.60;99.90
36416;DHT22;22447;44.530;18.620;2023-03-04T10:31:02;7.60;99.90
36416;DHT22;22447;44.530;18.620;2023-03-04T10:33:31;7.80;99.90
36416;DHT22;22447;44.530;18.620;2023-03-04T10:38:38;8.10;99.90
36416;DHT22;22447;44.530;18.620;2023-03-04T10:41:14;8.00;99.90
36416;DHT22;22447;44.530;18.620;2023-03-04T10:43:41;8.10;99.90
36416;DHT22;22447;44.530;18.620;2023-03-04T10:46:11;8.00;99.90
36416;DHT22;22447;44.530;18.620;2023-03-04T10:48:39;7.80;99.90
36416;DHT22;22447;44.530;18.620;2023-03-04T10:53:46;8.30;99.90
36416;DHT22;22447;44.530;18.620;2023-03-04T10:56:39;8.30;99.90
36416;DHT22;22447;44.530;18.620;2023-03-04T11:02:15;8.70;99.90
36416;DHT22;22447;44.530;18.620;2023-03-04T11:04:42;8.70;99.90
36416;DHT22;22447;44.530;18.620;2023-03-04T11:07:14;8.70;99.90
36416;DHT22;22447;44.530;18.620;2023-03-04T11:09:43;8.90;99.90
36416;DHT22;22447;44.530;18.620;2023-03-04T11:12:14;8.90;99.90
36416;DHT22;22447;44.530;18.620;2023-03-04T11:14:47;8.80;99.90
36416;DHT22;22447;44.530;18.620;2023-03-04T11:19:52;8.90;99.90
36416;DHT22;22447;44.530;18.620;2023-03-04T11:22:21;9.10;99.90
36416;DHT22;22447;44.530;18.620;2023-03-04T11:24:58;9.10;99.90
36416;DHT22;22447;44.530;18.620;2023-03-04T11:32:45;9.00;99.90
36416;DHT22;22447;44.530;18.620;2023-03-04T11:38:03;8.90;99.90
36416;DHT22;22447;44.530;18.620;2023-03-04T11:40:47;9.00;99.90
36416;DHT22;22447;44.530;18.620;2023-03-04T11:43:23;9.20;99.90
36416;DHT22;22447;44.530;18.620;2023-03-04T11:51:33;9.20;99.90
36416;DHT22;22447;44.530;18.620;2023-03-04T11:54:13;9.20;99.90
36416;DHT22;22447;44.530;18.620;2023-03-04T11:56:46;9.20;99.90
36416;DHT22;22447;44.530;18.620;2023-03-04T12:15:18;9.30;99.90
36416;DHT22;22447;44.530;18.620;2023-03-04T12:18:07;9.30;99.90
36416;DHT22;22447;44.530;18.620;2023-03-04T12:29:14;9.50;99.90
36416;DHT22;22447;44.530;18.620;2023-03-04T12:31:51;9.50;99.90
36416;DHT22;22447;44.530;18.620;2023-03-04T12:37:11;9.60;99.90
36416;DHT22;22447;44.530;18.620;2023-03-04T12:39:50;9.50;99.90
36416;DHT22;22447;44.530;18.620;2023-03-04T12:48:30;9.40;99.90
36416;DHT22;22447;44.530;18.620;2023-03-04T12:51:25;9.40;99.90
36416;DHT22;22447;44.530;18.620;2023-03-04T12:54:07;9.40;99.90
36416;DHT22;22447;44.530;18.620;2023-03-04T12:59:33;9.30;99.90
36416;DHT22;22447;44.530;18.620;2023-03-04T13:10:15;9.40;99.90
36416;DHT22;22447;44.530;18.620;2023-03-04T13:12:52;9.40;99.90
36416;DHT22;22447;44.530;18.620;2023-03-04T13:25:45;9.30;99.90
36416;DHT22;22447;44.530;18.620;2023-03-04T13:28:29;9.30;99.90
36416;DHT22;22447;44.530;18.620;2023-03-04T13:41:21;9.00;99.90
36416;DHT22;22447;44.530;18.620;2023-03-04T13:43:52;9.00;99.90
36416;DHT22;22447;44.530;18.620;2023-03-04T13:51:37;8.90;99.90
36416;DHT22;22447;44.530;18.620;2023-03-04T13:54:29;8.90;99.90
36416;DHT22;22447;44.530;18.620;2023-03-04T13:59:48;9.00;99.90
36416;DHT22;22447;44.530;18.620;2023-03-04T14:02:20;8.90;99.90
36416;DHT22;22447;44.530;18.620;2023-03-04T14:07:33;8.90;99.90
36416;DHT22;22447;44.530;18.620;2023-03-04T14:15:23;8.90;99.90
36416;DHT22;22447;44.530;18.620;2023-03-04T14:18:01;9.00;99.90
36416;DHT22;22447;44.530;18.620;2023-03-04T14:20:30;9.00;99.90
36416;DHT22;22447;44.530;18.620;2023-03-04T14:22:57;9.00;99.90
36416;DHT22;22447;44.530;18.620;2023-03-04T14:25:34;9.00;99.90
36416;DHT22;22447;44.530;18.620;2023-03-04T14:30:29;9.00;99.90
36416;DHT22;22447;44.530;18.620;2023-03-04T14:32:57;9.00;99.90
36416;DHT22;22447;44.530;18.620;2023-03-04T14:35:29;9.00;99.90
36416;DHT22;22447;44.530;18.620;2023-03-04T14:40:28;8.90;99.90
36416;DHT22;22447;44.530;18.620;2023-03-04T14:43:06;8.80;99.90
36416;DHT22;22447;44.530;18.620;2023-03-04T14:45:33;8.70;99.90
36416;DHT22;22447;44.530;18.620;2023-03-04T14:48:04;8.80;99.90
36416;DHT22;22447;44.530;18.620;2023-03-04T14:50:31;8.90;99.90
36416;DHT22;22447;44.530;18.620;2023-03-04T14:53:13;8.90;99.90
36416;DHT22;22447;44.530;18.620;2023-03-04T14:55:58;8.90;99.90
36416;DHT22;22447;44.530;18.620;2023-03-04T14:58:30;9.00;99.90
36416;DHT22;22447;44.530;18.620;2023-03-04T15:01:15;9.00;99.90
36416;DHT22;22447;44.530;18.620;2023-03-04T15:03:52;9.00;99.90
36416;DHT22;22447;44.530;18.620;2023-03-04T15:06:21;9.00;99.90
36416;DHT22;22447;44.530;18.620;2023-03-04T15:09:02;9.00;99.90
36416;DHT22;22447;44.530;18.620;2023-03-04T15:11:50;9.00;99.90
36416;DHT22;22447;44.530;18.620;2023-03-04T15:14:44;9.00;99.90
36416;DHT22;22447;44.530;18.620;2023-03-04T15:17:31;9.10;99.90
36416;DHT22;22447;44.530;18.620;2023-03-04T15:22:35;9.00;99.90
36416;DHT22;22447;44.530;18.620;2023-03-04T15:25:02;9.10;99.90
36416;DHT22;22447;44.530;18.620;2023-03-04T15:27:29;8.90;99.90
36416;DHT22;22447;44.530;18.620;2023-03-04T15:29:58;9.00;99.90
36416;DHT22;22447;44.530;18.620;2023-03-04T15:32:25;9.10;99.90
36416;DHT22;22447;44.530;18.620;2023-03-04T15:34:51;9.20;99.90
36416;DHT22;22447;44.530;18.620;2023-03-04T15:37:23;9.10;99.90
36416;DHT22;22447;44.530;18.620;2023-03-04T15:39:50;9.10;99.90
36416;DHT22;22447;44.530;18.620;2023-03-04T15:42:17;9.10;99.90
36416;DHT22;22447;44.530;18.620;2023-03-04T15:44:43;9.10;99.90
36416;DHT22;22447;44.530;18.620;2023-03-04T15:47:12;9.10;99.90
36416;DHT22;22447;44.530;18.620;2023-03-04T15:49:43;9.00;99.90
36416;DHT22;22447;44.530;18.620;2023-03-04T15:52:20;8.90;99.90
36416;DHT22;22447;44.530;18.620;2023-03-04T15:54:47;8.90;99.90
36416;DHT22;22447;44.530;18.620;2023-03-04T15:57:23;8.80;99.90
36416;DHT22;22447;44.530;18.620;2023-03-04T15:59:50;8.80;99.90
36416;DHT22;22447;44.530;18.620;2023-03-04T16:02:23;8.70;99.90
36416;DHT22;22447;44.530;18.620;2023-03-04T16:04:52;8.70;99.90
36416;DHT22;22447;44.530;18.620;2023-03-04T16:07:20;8.70;99.90
36416;DHT22;22447;44.530;18.620;2023-03-04T16:09:54;8.70;99.90
36416;DHT22;22447;44.530;18.620;2023-03-04T16:12:21;8.60;99.90
36416;DHT22;22447;44.530;18.620;2023-03-04T16:14:48;8.40;99.90
36416;DHT22;22447;44.530;18.620;2023-03-04T16:17:15;8.40;99.90
36416;DHT22;22447;44.530;18.620;2023-03-04T16:19:42;8.30;99.90
36416;DHT22;22447;44.530;18.620;2023-03-04T16:22:21;8.20;99.90
36416;DHT22;22447;44.530;18.620;2023-03-04T16:24:51;8.10;99.90
36416;DHT22;22447;44.530;18.620;2023-03-04T16:27:19;8.00;99.90
36416;DHT22;22447;44.530;18.620;2023-03-04T16:29:46;7.90;99.90
36416;DHT22;22447;44.530;18.620;2023-03-04T16:32:12;7.70;99.90
36416;DHT22;22447;44.530;18.620;2023-03-04T16:34:38;7.60;99.90
36416;DHT22;22447;44.530;18.620;2023-03-04T16:37:11;7.40;99.90
36416;DHT22;22447;44.530;18.620;2023-03-04T16:39:37;7.20;99.90
36416;DHT22;22447;44.530;18.620;2023-03-04T16:42:12;7.00;99.90
36416;DHT22;22447;44.530;18.620;2023-03-04T16:44:40;6.80;99.90
36416;DHT22;22447;44.530;18.620;2023-03-04T16:47:06;6.70;99.90
36416;DHT22;22447;44.530;18.620;2023-03-04T16:49:32;6.60;99.90
36416;DHT22;22447;44.530;18.620;2023-03-04T16:51:58;6.50;99.90
36416;DHT22;22447;44.530;18.620;2023-03-04T16:54:27;6.50;99.90
36416;DHT22;22447;44.530;18.620;2023-03-04T16:56:55;6.40;99.90
36416;DHT22;22447;44.530;18.620;2023-03-04T16:59:21;6.20;99.90
36416;DHT22;22447;44.530;18.620;2023-03-04T17:01:48;6.20;99.90
36416;DHT22;22447;44.530;18.620;2023-03-04T17:04:18;6.00;99.90
36416;DHT22;22447;44.530;18.620;2023-03-04T17:06:54;5.80;99.90
36416;DHT22;22447;44.530;18.620;2023-03-04T17:09:22;5.60;99.90
36416;DHT22;22447;44.530;18.620;2023-03-04T17:11:48;5.60;99.90
36416;DHT22;22447;44.530;18.620;2023-03-04T17:14:14;5.60;99.90
36416;DHT22;22447;44.530;18.620;2023-03-04T17:16:40;5.60;99.90
36416;DHT22;22447;44.530;18.620;2023-03-04T17:19:06;5.50;99.90
36416;DHT22;22447;44.530;18.620;2023-03-04T17:21:32;5.50;99.90
36416;DHT22;22447;44.530;18.620;2023-03-04T17:23:57;5.50;99.90
36416;DHT22;22447;44.530;18.620;2023-03-04T17:26:24;5.40;99.90
36416;DHT22;22447;44.530;18.620;2023-03-04T17:28:50;5.30;99.90
36416;DHT22;22447;44.530;18.620;2023-03-04T17:31:18;5.20;99.90
36416;DHT22;22447;44.530;18.620;2023-03-04T17:33:45;5.10;99.90
36416;DHT22;22447;44.530;18.620;2023-03-04T17:36:12;5.00;99.90
36416;DHT22;22447;44.530;18.620;2023-03-04T17:38:39;4.90;99.90
36416;DHT22;22447;44.530;18.620;2023-03-04T17:41:08;4.80;99.90
36416;DHT22;22447;44.530;18.620;2023-03-04T17:43:34;4.70;99.90
36416;DHT22;22447;44.530;18.620;2023-03-04T17:46:08;4.50;99.90
36416;DHT22;22447;44.530;18.620;2023-03-04T17:48:35;4.40;99.90
36416;DHT22;22447;44.530;18.620;2023-03-04T17:51:01;4.40;99.90
36416;DHT22;22447;44.530;18.620;2023-03-04T17:53:26;4.20;99.90
36416;DHT22;22447;44.530;18.620;2023-03-04T17:55:55;4.30;99.90
36416;DHT22;22447;44.530;18.620;2023-03-04T17:58:22;4.20;99.90
36416;DHT22;22447;44.530;18.620;2023-03-04T18:00:50;4.10;99.90
36416;DHT22;22447;44.530;18.620;2023-03-04T18:03:17;4.10;99.90